sensor_id;sensor_type;location;lat;lon;timestamp;temperature;humidity
963;DHT22;469;48.770;9.176;2023-02-13T09:27:49;5.00;1.00
963;DHT22;469;48.770;9.176;2023-02-13T09:30:19;5.00;1.00
963;DHT22;469;48.770;9.176;2023-02-13T09:32:49;5.10;1.00
963;DHT22;469;48.770;9.176;2023-02-13T09:35:19;5.20;1.00
963;DHT22;469;48.770;9.176;2023-02-13T09:37:52;5.20;1.00
963;DHT22;469;48.770;9.176;2023-02-13T09:40:24;5.30;1.00
963;DHT22;469;48.770;9.176;2023-02-13T09:42:59;5.40;1.00
963;DHT22;469;48.770;9.176;2023-02-13T09:45:27;5.40;1.00
963;DHT22;469;48.770;9.176;2023-02-13T09:47:54;5.40;1.00
963;DHT22;469;48.770;9.176;2023-02-13T09:50:23;5.50;1.00
963;DHT22;469;48.770;9.176;2023-02-13T09:52:53;5.60;1.00
963;DHT22;469;48.770;9.176;2023-02-13T09:55:24;5.60;1.00
963;DHT22;469;48.770;9.176;2023-02-13T09:57:57;5.70;1.00
963;DHT22;469;48.770;9.176;2023-02-13T10:00:31;5.80;1.00
963;DHT22;469;48.770;9.176;2023-02-13T10:03:19;5.90;1.00
963;DHT22;469;48.770;9.176;2023-02-13T10:05:55;5.90;1.00
963;DHT22;469;48.770;9.176;2023-02-13T10:08:33;5.90;1.00
963;DHT22;469;48.770;9.176;2023-02-13T10:11:19;6.00;1.00
963;DHT22;469;48.770;9.176;2023-02-13T10:13:58;6.00;1.00
963;DHT22;469;48.770;9.176;2023-02-13T10:16:32;6.10;1.00
963;DHT22;469;48.770;9.176;2023-02-13T10:19:04;6.10;1.00
963;DHT22;469;48.770;9.176;2023-02-13T10:21:36;6.00;1.00
963;DHT22;469;48.770;9.176;2023-02-13T10:24:13;6.10;1.00
963;DHT22;469;48.770;9.176;2023-02-13T10:26:43;6.20;1.00
963;DHT22;469;48.770;9.176;2023-02-13T10:29:17;6.30;1.00
963;DHT22;469;48.770;9.176;2023-02-13T10:32:06;6.30;1.00
963;DHT22;469;48.770;9.176;2023-02-13T10:34:37;6.30;1.00
963;DHT22;469;48.770;9.176;2023-02-13T10:37:12;6.40;1.00
963;DHT22;469;48.770;9.176;2023-02-13T10:39:42;6.40;1.00
963;DHT22;469;48.770;9.176;2023-02-13T10:42:17;6.50;1.00
963;DHT22;469;48.770;9.176;2023-02-13T10:44:57;6.60;1.00
963;DHT22;469;48.770;9.176;2023-02-13T10:48:00;6.70;1.00
963;DHT22;469;48.770;9.176;2023-02-13T10:50:36;6.80;1.00
963;DHT22;469;48.770;9.176;2023-02-13T10:53:14;6.90;1.00
963;DHT22;469;48.770;9.176;2023-02-13T10:56:00;7.00;1.00
963;DHT22;469;48.770;9.176;2023-02-13T10:58:37;7.00;1.00
963;DHT22;469;48.770;9.176;2023-02-13T11:01:13;7.00;1.00
963;DHT22;469;48.770;9.176;2023-02-13T11:03:42;7.10;1.00
963;DHT22;469;48.770;9.176;2023-02-13T11:06:15;7.20;1.00
963;DHT22;469;48.770;9.176;2023-02-13T11:08:46;7.20;1.00
963;DHT22;469;48.770;9.176;2023-02-13T11:11:30;7.20;1.00
963;DHT22;469;48.770;9.176;2023-02-13T11:14:08;7.20;1.00
963;DHT22;469;48.770;9.176;2023-02-13T11:16:46;7.30;1.00
963;DHT22;469;48.770;9.176;2023-02-13T11:19:17;7.40;1.00
963;DHT22;469;48.770;9.176;2023-02-13T11:21:56;7.40;1.00
963;DHT22;469;48.770;9.176;2023-02-13T11:24:26;7.50;1.00
963;DHT22;469;48.770;9.176;2023-02-13T11:26:58;7.40;1.00
963;DHT22;469;48.770;9.176;2023-02-13T11:29:27;7.50;1.00
963;DHT22;469;48.770;9.176;2023-02-13T11:32:09;7.40;1.00
963;DHT22;469;48.770;9.176;2023-02-13T11:34:43;7.50;1.00
963;DHT22;469;48.770;9.176;2023-02-13T11:37:16;7.60;1.00
963;DHT22;469;48.770;9.176;2023-02-13T11:39:44;7.70;1.00
963;DHT22;469;48.770;9.176;2023-02-13T11:42:13;7.80;1.00
963;DHT22;469;48.770;9.176;2023-02-13T11:44:41;7.80;1.00
963;DHT22;469;48.770;9.176;2023-02-13T11:47:10;7.80;1.00
963;DHT22;469;48.770;9.176;2023-02-13T11:49:44;7.90;1.00
963;DHT22;469;48.770;9.176;2023-02-13T11:52:22;8.00;1.00
963;DHT22;469;48.770;9.176;2023-02-13T11:54:56;8.00;1.00
963;DHT22;469;48.770;9.176;2023-02-13T11:57:29;8.10;1.00
963;DHT22;469;48.770;9.176;2023-02-13T11:59:57;8.20;1.00
963;DHT22;469;48.770;9.176;2023-02-13T12:02:27;8.10;1.00
963;DHT22;469;48.770;9.176;2023-02-13T12:05:14;8.10;1.00
963;DHT22;469;48.770;9.176;2023-02-13T12:07:42;8.20;1.00
963;DHT22;469;48.770;9.176;2023-02-13T12:10:19;8.30;1.00
963;DHT22;469;48.770;9.176;2023-02-13T12:12:53;8.30;1.00
963;DHT22;469;48.770;9.176;2023-02-13T12:15:22;8.20;1.00
963;DHT22;469;48.770;9.176;2023-02-13T12:18:10;8.30;1.00
963;DHT22;469;48.770;9.176;2023-02-13T12:20:45;8.40;1.00
963;DHT22;469;48.770;9.176;2023-02-13T12:23:22;8.40;1.00
963;DHT22;469;48.770;9.176;2023-02-13T12:26:15;8.40;1.00
963;DHT22;469;48.770;9.176;2023-02-13T12:29:13;8.30;1.00
963;DHT22;469;48.770;9.176;2023-02-13T12:32:00;8.40;1.00
963;DHT22;469;48.770;9.176;2023-02-13T12:34:53;8.50;1.00
963;DHT22;469;48.770;9.176;2023-02-13T12:37:39;8.50;1.00
963;DHT22;469;48.770;9.176;2023-02-13T12:40:22;8.60;1.00
963;DHT22;469;48.770;9.176;2023-02-13T12:43:06;8.60;1.00
963;DHT22;469;48.770;9.176;2023-02-13T12:45:50;8.60;1.00
963;DHT22;469;48.770;9.176;2023-02-13T12:48:35;8.70;1.00
963;DHT22;469;48.770;9.176;2023-02-13T12:51:19;8.70;1.00
963;DHT22;469;48.770;9.176;2023-02-13T12:54:13;8.70;1.00
963;DHT22;469;48.770;9.176;2023-02-13T12:56:52;8.80;1.00
963;DHT22;469;48.770;9.176;2023-02-13T12:59:58;8.90;1.00
963;DHT22;469;48.770;9.176;2023-02-13T13:02:52;8.80;1.00
963;DHT22;469;48.770;9.176;2023-02-13T13:05:36;8.90;1.00
963;DHT22;469;48.770;9.176;2023-02-13T13:08:24;8.90;1.00
963;DHT22;469;48.770;9.176;2023-02-13T13:11:13;8.90;1.00
963;DHT22;469;48.770;9.176;2023-02-13T13:13:52;9.00;1.00
963;DHT22;469;48.770;9.176;2023-02-13T13:16:32;9.00;1.00
963;DHT22;469;48.770;9.176;2023-02-13T13:19:15;9.10;1.00
963;DHT22;469;48.770;9.176;2023-02-13T13:21:50;9.10;1.00
963;DHT22;469;48.770;9.176;2023-02-13T13:24:32;9.10;1.00
963;DHT22;469;48.770;9.176;2023-02-13T13:27:19;9.20;1.00
963;DHT22;469;48.770;9.176;2023-02-13T13:29:52;9.20;1.00
963;DHT22;469;48.770;9.176;2023-02-13T13:32:45;9.30;1.00
963;DHT22;469;48.770;9.176;2023-02-13T13:35:29;9.30;1.00
963;DHT22;469;48.770;9.176;2023-02-13T13:38:05;9.30;1.00
963;DHT22;469;48.770;9.176;2023-02-13T13:40:45;9.20;1.00
963;DHT22;469;48.770;9.176;2023-02-13T13:43:21;9.30;1.00
963;DHT22;469;48.770;9.176;2023-02-13T13:46:02;9.40;1.00
963;DHT22;469;48.770;9.176;2023-02-13T13:48:58;9.50;1.00
963;DHT22;469;48.770;9.176;2023-02-13T13:51:29;9.50;1.00
963;DHT22;469;48.770;9.176;2023-02-13T13:54:16;9.50;1.00
963;DHT22;469;48.770;9.176;2023-02-13T13:57:04;9.50;1.00
963;DHT22;469;48.770;9.176;2023-02-13T14:02:40;9.50;1.00
963;DHT22;469;48.770;9.176;2023-02-13T14:05:26;9.60;1.00
963;DHT22;469;48.770;9.176;2023-02-13T14:07:55;9.70;1.00
963;DHT22;469;48.770;9.176;2023-02-13T14:10:58;9.60;1.00
963;DHT22;469;48.770;9.176;2023-02-13T14:13:30;9.60;1.00
963;DHT22;469;48.770;9.176;2023-02-13T14:15:57;9.70;1.00
963;DHT22;469;48.770;9.176;2023-02-13T14:18:24;9.80;1.00
963;DHT22;469;48.770;9.176;2023-02-13T14:20:54;9.80;1.00
963;DHT22;469;48.770;9.176;2023-02-13T14:23:31;9.80;1.00
963;DHT22;469;48.770;9.176;2023-02-13T14:26:18;9.80;1.00
963;DHT22;469;48.770;9.176;2023-02-13T14:29:12;9.70;1.00
963;DHT22;469;48.770;9.176;2023-02-13T14:31:42;9.70;1.00
963;DHT22;469;48.770;9.176;2023-02-13T14:34:19;9.80;1.00
963;DHT22;469;48.770;9.176;2023-02-13T14:37:03;9.70;1.00
963;DHT22;469;48.770;9.176;2023-02-13T14:39:33;9.70;1.00
963;DHT22;469;48.770;9.176;2023-02-13T14:42:01;9.80;1.00
963;DHT22;469;48.770;9.176;2023-02-13T14:44:33;9.80;1.00
963;DHT22;469;48.770;9.176;2023-02-13T14:47:04;9.80;1.00
963;DHT22;469;48.770;9.176;2023-02-13T14:49:34;9.70;1.00
963;DHT22;469;48.770;9.176;2023-02-13T14:52:04;9.70;1.00
963;DHT22;469;48.770;9.176;2023-02-13T14:54:35;9.70;1.00
963;DHT22;469;48.770;9.176;2023-02-13T14:57:16;9.70;1.00
963;DHT22;469;48.770;9.176;2023-02-13T14:59:47;9.70;1.00
963;DHT22;469;48.770;9.176;2023-02-13T15:02:20;9.70;1.00
963;DHT22;469;48.770;9.176;2023-02-13T15:04:58;9.70;1.00
963;DHT22;469;48.770;9.176;2023-02-13T15:07:33;9.70;1.00
963;DHT22;469;48.770;9.176;2023-02-13T15:10:05;9.60;1.00
963;DHT22;469;48.770;9.176;2023-02-13T15:12:34;9.50;1.00
963;DHT22;469;48.770;9.176;2023-02-13T15:15:21;9.50;1.00
963;DHT22;469;48.770;9.176;2023-02-13T15:17:48;9.60;1.00
963;DHT22;469;48.770;9.176;2023-02-13T15:20:22;9.60;1.00
963;DHT22;469;48.770;9.176;2023-02-13T15:22:50;9.50;1.00
963;DHT22;469;48.770;9.176;2023-02-13T15:25:22;9.70;1.00
963;DHT22;469;48.770;9.176;2023-02-13T15:27:51;10.10;1.00
963;DHT22;469;48.770;9.176;2023-02-13T15:30:23;10.60;1.00
963;DHT22;469;48.770;9.176;2023-02-13T18:34:36;11.00;1.00
963;DHT22;469;48.770;9.176;2023-02-13T18:37:08;4.60;1.00
963;DHT22;469;48.770;9.176;2023-02-13T18:39:35;4.50;1.00
963;DHT22;469;48.770;9.176;2023-02-13T18:42:02;4.50;1.00
963;DHT22;469;48.770;9.176;2023-02-13T18:44:29;4.40;1.00
963;DHT22;469;48.770;9.176;2023-02-13T18:46:56;4.30;1.00
963;DHT22;469;48.770;9.176;2023-02-13T18:49:24;4.30;1.00
963;DHT22;469;48.770;9.176;2023-02-13T18:51:54;4.30;1.00
963;DHT22;469;48.770;9.176;2023-02-13T18:54:22;4.20;1.00
963;DHT22;469;48.770;9.176;2023-02-13T18:56:54;4.20;1.00
963;DHT22;469;48.770;9.176;2023-02-13T18:59:24;4.10;1.00
963;DHT22;469;48.770;9.176;2023-02-13T19:01:54;4.10;1.00
963;DHT22;469;48.770;9.176;2023-02-13T19:04:24;4.00;1.00
963;DHT22;469;48.770;9.176;2023-02-13T19:06:55;4.00;1.00
963;DHT22;469;48.770;9.176;2023-02-13T19:09:31;4.00;1.00
963;DHT22;469;48.770;9.176;2023-02-13T19:12:05;4.00;1.00
963;DHT22;469;48.770;9.176;2023-02-13T19:14:32;3.90;1.00
963;DHT22;469;48.770;9.176;2023-02-13T19:16:59;3.80;1.00
963;DHT22;469;48.770;9.176;2023-02-13T19:19:26;3.80;1.00
963;DHT22;469;48.770;9.176;2023-02-13T19:21:54;3.80;1.00
963;DHT22;469;48.770;9.176;2023-02-13T19:24:24;3.70;1.00
963;DHT22;469;48.770;9.176;2023-02-13T19:26:51;3.70;1.00
963;DHT22;469;48.770;9.176;2023-02-13T19:29:18;3.70;1.00
963;DHT22;469;48.770;9.176;2023-02-13T19:31:47;3.70;1.00
963;DHT22;469;48.770;9.176;2023-02-13T19:34:14;3.60;1.00
963;DHT22;469;48.770;9.176;2023-02-13T19:36:41;3.60;1.00
963;DHT22;469;48.770;9.176;2023-02-13T19:39:10;3.50;1.00
963;DHT22;469;48.770;9.176;2023-02-13T19:41:37;3.40;1.00
963;DHT22;469;48.770;9.176;2023-02-13T19:44:05;3.40;1.00
963;DHT22;469;48.770;9.176;2023-02-13T19:46:33;3.40;1.00
963;DHT22;469;48.770;9.176;2023-02-13T19:49:00;3.40;1.00
963;DHT22;469;48.770;9.176;2023-02-13T19:51:29;3.30;1.00
963;DHT22;469;48.770;9.176;2023-02-13T19:54:00;3.20;1.00
963;DHT22;469;48.770;9.176;2023-02-13T19:56:34;3.20;1.00
963;DHT22;469;48.770;9.176;2023-02-13T19:59:01;3.20;1.00
963;DHT22;469;48.770;9.176;2023-02-13T20:01:29;3.10;1.00
963;DHT22;469;48.770;9.176;2023-02-13T20:03:58;3.10;1.00
963;DHT22;469;48.770;9.176;2023-02-13T20:06:26;3.10;1.00
963;DHT22;469;48.770;9.176;2023-02-13T20:08:56;3.00;1.00
963;DHT22;469;48.770;9.176;2023-02-13T20:11:24;3.00;1.00
963;DHT22;469;48.770;9.176;2023-02-13T20:13:59;3.00;1.00
963;DHT22;469;48.770;9.176;2023-02-13T20:16:28;3.00;1.00
963;DHT22;469;48.770;9.176;2023-02-13T20:18:59;3.00;1.00
963;DHT22;469;48.770;9.176;2023-02-13T20:21:30;2.90;1.00
963;DHT22;469;48.770;9.176;2023-02-13T20:23:57;2.90;1.00
963;DHT22;469;48.770;9.176;2023-02-13T20:26:24;2.90;1.00
963;DHT22;469;48.770;9.176;2023-02-13T20:28:54;2.80;1.00
963;DHT22;469;48.770;9.176;2023-02-13T20:31:25;2.80;1.00
963;DHT22;469;48.770;9.176;2023-02-13T20:33:55;2.80;1.00
963;DHT22;469;48.770;9.176;2023-02-13T20:36:24;2.80;1.00
963;DHT22;469;48.770;9.176;2023-02-13T20:39:00;2.80;1.00
963;DHT22;469;48.770;9.176;2023-02-13T20:41:30;2.80;1.00
963;DHT22;469;48.770;9.176;2023-02-13T20:44:03;2.80;1.00
963;DHT22;469;48.770;9.176;2023-02-13T20:46:36;2.70;1.00
963;DHT22;469;48.770;9.176;2023-02-13T20:49:04;2.70;1.00
963;DHT22;469;48.770;9.176;2023-02-13T20:51:31;2.70;1.00
963;DHT22;469;48.770;9.176;2023-02-13T20:53:59;2.60;1.00
963;DHT22;469;48.770;9.176;2023-02-13T20:56:26;2.60;1.00
963;DHT22;469;48.770;9.176;2023-02-13T20:58:59;2.60;1.00
963;DHT22;469;48.770;9.176;2023-02-13T21:01:31;2.60;1.00
963;DHT22;469;48.770;9.176;2023-02-13T21:04:03;2.50;1.00
963;DHT22;469;48.770;9.176;2023-02-13T21:06:33;2.50;1.00
963;DHT22;469;48.770;9.176;2023-02-13T21:09:01;2.40;1.00
963;DHT22;469;48.770;9.176;2023-02-13T21:11:30;2.40;1.00
963;DHT22;469;48.770;9.176;2023-02-13T21:14:00;2.40;1.00
963;DHT22;469;48.770;9.176;2023-02-13T21:16:29;2.40;1.00
963;DHT22;469;48.770;9.176;2023-02-13T21:19:02;2.30;1.00
963;DHT22;469;48.770;9.176;2023-02-13T21:21:32;2.30;1.00
963;DHT22;469;48.770;9.176;2023-02-13T21:24:04;2.30;1.00
963;DHT22;469;48.770;9.176;2023-02-13T21:26:32;2.20;1.00
963;DHT22;469;48.770;9.176;2023-02-13T21:29:01;2.20;1.00
963;DHT22;469;48.770;9.176;2023-02-13T21:31:33;2.20;1.00
963;DHT22;469;48.770;9.176;2023-02-13T21:34:01;2.20;1.00
963;DHT22;469;48.770;9.176;2023-02-13T21:36:28;2.10;1.00
963;DHT22;469;48.770;9.176;2023-02-13T21:38:56;2.20;1.00
963;DHT22;469;48.770;9.176;2023-02-13T21:41:26;2.10;1.00
963;DHT22;469;48.770;9.176;2023-02-13T21:43:53;2.10;1.00
963;DHT22;469;48.770;9.176;2023-02-13T21:46:26;2.10;1.00
963;DHT22;469;48.770;9.176;2023-02-13T21:49:00;2.10;1.00
963;DHT22;469;48.770;9.176;2023-02-13T21:51:34;2.10;1.00
963;DHT22;469;48.770;9.176;2023-02-13T21:54:02;2.10;1.00
963;DHT22;469;48.770;9.176;2023-02-13T21:56:35;2.00;1.00
963;DHT22;469;48.770;9.176;2023-02-13T21:59:03;2.00;1.00
963;DHT22;469;48.770;9.176;2023-02-13T22:01:35;2.00;1.00
963;DHT22;469;48.770;9.176;2023-02-13T22:04:07;2.00;1.00
963;DHT22;469;48.770;9.176;2023-02-13T22:06:36;2.00;1.00
963;DHT22;469;48.770;9.176;2023-02-13T22:09:11;2.00;1.00
963;DHT22;469;48.770;9.176;2023-02-13T22:11:40;2.00;1.00
963;DHT22;469;48.770;9.176;2023-02-13T22:14:10;1.90;1.00
963;DHT22;469;48.770;9.176;2023-02-13T22:16:38;1.90;1.00
963;DHT22;469;48.770;9.176;2023-02-13T22:19:07;1.90;1.00
963;DHT22;469;48.770;9.176;2023-02-13T22:21:34;1.80;1.00
963;DHT22;469;48.770;9.176;2023-02-13T22:24:02;1.80;1.00
963;DHT22;469;48.770;9.176;2023-02-13T22:26:30;1.80;1.00
963;DHT22;469;48.770;9.176;2023-02-13T22:28:59;1.80;1.00
963;DHT22;469;48.770;9.176;2023-02-13T22:31:27;1.80;1.00
963;DHT22;469;48.770;9.176;2023-02-13T22:33:55;1.70;1.00
963;DHT22;469;48.770;9.176;2023-02-13T22:36:23;1.70;1.00
963;DHT22;469;48.770;9.176;2023-02-13T22:38:52;1.70;1.00
963;DHT22;469;48.770;9.176;2023-02-13T22:41:23;1.70;1.00
963;DHT22;469;48.770;9.176;2023-02-13T22:43:52;1.70;1.00
963;DHT22;469;48.770;9.176;2023-02-13T22:46:22;1.70;1.00
963;DHT22;469;48.770;9.176;2023-02-13T22:48:50;1.70;1.00
963;DHT22;469;48.770;9.176;2023-02-13T22:51:21;1.60;1.00
963;DHT22;469;48.770;9.176;2023-02-13T22:53:50;1.60;1.00
963;DHT22;469;48.770;9.176;2023-02-13T22:56:17;1.60;1.00
963;DHT22;469;48.770;9.176;2023-02-13T22:58:47;1.60;1.00
963;DHT22;469;48.770;9.176;2023-02-13T23:01:15;1.60;1.00
963;DHT22;469;48.770;9.176;2023-02-13T23:03:43;1.50;1.00
963;DHT22;469;48.770;9.176;2023-02-13T23:06:12;1.50;1.00
963;DHT22;469;48.770;9.176;2023-02-13T23:08:42;1.40;1.00
963;DHT22;469;48.770;9.176;2023-02-13T23:11:12;1.30;1.00
963;DHT22;469;48.770;9.176;2023-02-13T23:13:58;1.30;1.00
963;DHT22;469;48.770;9.176;2023-02-13T23:16:25;1.30;1.00
963;DHT22;469;48.770;9.176;2023-02-13T23:18:54;1.30;1.00
963;DHT22;469;48.770;9.176;2023-02-13T23:21:20;1.30;1.00
963;DHT22;469;48.770;9.176;2023-02-13T23:23:49;1.30;1.00
963;DHT22;469;48.770;9.176;2023-02-13T23:26:16;1.20;1.00
963;DHT22;469;48.770;9.176;2023-02-13T23:28:43;1.20;1.00
963;DHT22;469;48.770;9.176;2023-02-13T23:31:10;1.20;1.00
963;DHT22;469;48.770;9.176;2023-02-13T23:33:36;1.20;1.00
963;DHT22;469;48.770;9.176;2023-02-13T23:36:04;1.20;1.00
963;DHT22;469;48.770;9.176;2023-02-13T23:38:31;1.20;1.00
963;DHT22;469;48.770;9.176;2023-02-13T23:41:06;1.30;1.00
963;DHT22;469;48.770;9.176;2023-02-13T23:43:33;1.30;1.00
963;DHT22;469;48.770;9.176;2023-02-13T23:46:02;1.30;1.00
963;DHT22;469;48.770;9.176;2023-02-13T23:48:29;1.30;1.00
963;DHT22;469;48.770;9.176;2023-02-13T23:50:59;1.30;1.00
963;DHT22;469;48.770;9.176;2023-02-13T23:53:26;1.20;1.00
963;DHT22;469;48.770;9.176;2023-02-13T23:55:53;1.20;1.00
963;DHT22;469;48.770;9.176;2023-02-13T23:58:21;1.20;1.00
